sensor_id;sensor_type;location;lat;lon;timestamp;P1;durP1;ratioP1;P2;durP2;ratioP2
1328;SDS011;658;48.820;9.354;2022-12-07T00:01:44;1.70;;;1.60;;
1328;SDS011;658;48.820;9.354;2022-12-07T00:05:46;2.00;;;1.90;;
1328;SDS011;658;48.820;9.354;2022-12-07T00:09:46;2.47;;;2.30;;
1328;SDS011;658;48.820;9.354;2022-12-07T00:13:50;2.00;;;1.90;;
1328;SDS011;658;48.820;9.354;2022-12-07T00:17:55;1.70;;;1.60;;
1328;SDS011;658;48.820;9.354;2022-12-07T00:21:56;3.07;;;2.33;;
1328;SDS011;658;48.820;9.354;2022-12-07T00:26:02;2.40;;;2.20;;
1328;SDS011;658;48.820;9.354;2022-12-07T00:30:04;1.93;;;1.80;;
1328;SDS011;658;48.820;9.354;2022-12-07T00:34:12;2.50;;;2.30;;
1328;SDS011;658;48.820;9.354;2022-12-07T00:38:14;1.97;;;1.77;;
1328;SDS011;658;48.820;9.354;2022-12-07T00:42:15;2.40;;;2.20;;
1328;SDS011;658;48.820;9.354;2022-12-07T00:46:16;2.10;;;2.00;;
1328;SDS011;658;48.820;9.354;2022-12-07T00:50:17;2.37;;;2.17;;
1328;SDS011;658;48.820;9.354;2022-12-07T00:54:18;2.17;;;2.07;;
1328;SDS011;658;48.820;9.354;2022-12-07T00:58:18;2.53;;;2.33;;
1328;SDS011;658;48.820;9.354;2022-12-07T01:02:19;2.30;;;2.20;;
1328;SDS011;658;48.820;9.354;2022-12-07T01:06:21;2.30;;;2.20;;
1328;SDS011;658;48.820;9.354;2022-12-07T01:10:26;2.23;;;2.13;;
1328;SDS011;658;48.820;9.354;2022-12-07T01:14:28;2.00;;;1.90;;
1328;SDS011;658;48.820;9.354;2022-12-07T01:18:29;2.23;;;2.13;;
1328;SDS011;658;48.820;9.354;2022-12-07T01:22:31;1.97;;;1.87;;
1328;SDS011;658;48.820;9.354;2022-12-07T01:26:35;2.00;;;1.90;;
1328;SDS011;658;48.820;9.354;2022-12-07T01:30:36;2.93;;;2.20;;
1328;SDS011;658;48.820;9.354;2022-12-07T01:34:37;2.30;;;2.10;;
1328;SDS011;658;48.820;9.354;2022-12-07T01:38:37;2.40;;;2.20;;
1328;SDS011;658;48.820;9.354;2022-12-07T01:42:38;2.30;;;2.20;;
1328;SDS011;658;48.820;9.354;2022-12-07T01:46:39;2.50;;;2.30;;
1328;SDS011;658;48.820;9.354;2022-12-07T01:50:41;2.20;;;2.10;;
1328;SDS011;658;48.820;9.354;2022-12-07T01:54:46;1.97;;;1.87;;
1328;SDS011;658;48.820;9.354;2022-12-07T01:58:49;2.40;;;2.30;;
1328;SDS011;658;48.820;9.354;2022-12-07T02:03:10;2.57;;;2.37;;
1328;SDS011;658;48.820;9.354;2022-12-07T02:07:15;1.90;;;1.80;;
1328;SDS011;658;48.820;9.354;2022-12-07T02:11:16;2.00;;;1.90;;
1328;SDS011;658;48.820;9.354;2022-12-07T02:15:18;2.03;;;1.93;;
1328;SDS011;658;48.820;9.354;2022-12-07T02:27:39;2.13;;;2.03;;
1328;SDS011;658;48.820;9.354;2022-12-07T02:31:54;2.20;;;2.10;;
1328;SDS011;658;48.820;9.354;2022-12-07T02:36:20;2.30;;;2.10;;
1328;SDS011;658;48.820;9.354;2022-12-07T02:44:33;2.80;;;2.60;;
1328;SDS011;658;48.820;9.354;2022-12-07T02:48:34;2.30;;;2.10;;
1328;SDS011;658;48.820;9.354;2022-12-07T02:52:38;2.13;;;2.03;;
1328;SDS011;658;48.820;9.354;2022-12-07T02:56:41;2.17;;;2.07;;
1328;SDS011;658;48.820;9.354;2022-12-07T03:06:23;2.03;;;1.93;;
1328;SDS011;658;48.820;9.354;2022-12-07T03:10:14;2.53;;;2.33;;
1328;SDS011;658;48.820;9.354;2022-12-07T03:14:18;2.10;;;2.00;;
1328;SDS011;658;48.820;9.354;2022-12-07T03:18:30;2.10;;;2.00;;
1328;SDS011;658;48.820;9.354;2022-12-07T03:22:34;2.33;;;2.23;;
1328;SDS011;658;48.820;9.354;2022-12-07T03:26:39;2.03;;;1.93;;
1328;SDS011;658;48.820;9.354;2022-12-07T03:30:47;2.30;;;2.20;;
1328;SDS011;658;48.820;9.354;2022-12-07T03:34:56;2.10;;;2.00;;
1328;SDS011;658;48.820;9.354;2022-12-07T03:39:37;2.03;;;1.93;;
1328;SDS011;658;48.820;9.354;2022-12-07T03:43:45;2.67;;;2.40;;
1328;SDS011;658;48.820;9.354;2022-12-07T03:47:47;2.30;;;2.10;;
1328;SDS011;658;48.820;9.354;2022-12-07T03:52:01;2.10;;;2.00;;
1328;SDS011;658;48.820;9.354;2022-12-07T03:56:27;2.30;;;2.20;;
1328;SDS011;658;48.820;9.354;2022-12-07T04:00:29;2.00;;;1.90;;
1328;SDS011;658;48.820;9.354;2022-12-07T04:04:30;1.97;;;1.83;;
1328;SDS011;658;48.820;9.354;2022-12-07T04:08:31;2.23;;;2.13;;
1328;SDS011;658;48.820;9.354;2022-12-07T04:12:31;2.03;;;1.93;;
1328;SDS011;658;48.820;9.354;2022-12-07T04:16:32;2.00;;;1.90;;
1328;SDS011;658;48.820;9.354;2022-12-07T04:20:33;1.90;;;1.80;;
1328;SDS011;658;48.820;9.354;2022-12-07T04:24:34;1.97;;;1.87;;
1328;SDS011;658;48.820;9.354;2022-12-07T04:28:34;1.80;;;1.70;;
1328;SDS011;658;48.820;9.354;2022-12-07T04:32:35;1.90;;;1.80;;
1328;SDS011;658;48.820;9.354;2022-12-07T04:36:35;2.00;;;1.90;;
1328;SDS011;658;48.820;9.354;2022-12-07T04:40:37;2.37;;;2.17;;
1328;SDS011;658;48.820;9.354;2022-12-07T04:44:37;2.30;;;2.10;;
1328;SDS011;658;48.820;9.354;2022-12-07T04:48:38;2.13;;;2.03;;
1328;SDS011;658;48.820;9.354;2022-12-07T04:52:39;1.87;;;1.77;;
1328;SDS011;658;48.820;9.354;2022-12-07T04:56:40;2.50;;;2.30;;
1328;SDS011;658;48.820;9.354;2022-12-07T05:00:41;2.17;;;2.07;;
1328;SDS011;658;48.820;9.354;2022-12-07T05:04:42;2.03;;;1.90;;
1328;SDS011;658;48.820;9.354;2022-12-07T05:08:43;1.80;;;1.70;;
1328;SDS011;658;48.820;9.354;2022-12-07T05:12:43;2.30;;;2.20;;
1328;SDS011;658;48.820;9.354;2022-12-07T05:16:46;1.87;;;1.77;;
1328;SDS011;658;48.820;9.354;2022-12-07T05:20:48;1.73;;;1.63;;
1328;SDS011;658;48.820;9.354;2022-12-07T05:24:49;1.80;;;1.70;;
1328;SDS011;658;48.820;9.354;2022-12-07T05:28:50;1.60;;;1.50;;
1328;SDS011;658;48.820;9.354;2022-12-07T05:32:52;2.23;;;2.03;;
1328;SDS011;658;48.820;9.354;2022-12-07T05:36:53;2.13;;;1.70;;
1328;SDS011;658;48.820;9.354;2022-12-07T05:40:53;1.73;;;1.63;;
1328;SDS011;658;48.820;9.354;2022-12-07T05:44:54;1.63;;;1.53;;
1328;SDS011;658;48.820;9.354;2022-12-07T05:48:54;1.83;;;1.73;;
1328;SDS011;658;48.820;9.354;2022-12-07T05:52:55;2.00;;;1.90;;
1328;SDS011;658;48.820;9.354;2022-12-07T05:56:55;2.10;;;2.00;;
1328;SDS011;658;48.820;9.354;2022-12-07T06:00:56;2.40;;;2.20;;
1328;SDS011;658;48.820;9.354;2022-12-07T06:04:57;1.90;;;1.80;;
1328;SDS011;658;48.820;9.354;2022-12-07T06:08:57;2.10;;;2.00;;
1328;SDS011;658;48.820;9.354;2022-12-07T06:12:58;1.77;;;1.67;;
1328;SDS011;658;48.820;9.354;2022-12-07T06:16:59;2.03;;;1.70;;
1328;SDS011;658;48.820;9.354;2022-12-07T06:21:00;2.10;;;1.90;;
1328;SDS011;658;48.820;9.354;2022-12-07T06:25:01;1.80;;;1.70;;
1328;SDS011;658;48.820;9.354;2022-12-07T06:29:01;2.13;;;2.03;;
1328;SDS011;658;48.820;9.354;2022-12-07T06:33:02;2.50;;;2.30;;
1328;SDS011;658;48.820;9.354;2022-12-07T06:37:03;2.10;;;2.00;;
1328;SDS011;658;48.820;9.354;2022-12-07T06:41:03;2.83;;;2.60;;
1328;SDS011;658;48.820;9.354;2022-12-07T06:45:04;3.70;;;2.40;;
1328;SDS011;658;48.820;9.354;2022-12-07T06:49:05;2.40;;;2.00;;
1328;SDS011;658;48.820;9.354;2022-12-07T06:53:07;4.00;;;1.90;;
1328;SDS011;658;48.820;9.354;2022-12-07T06:57:09;1.90;;;1.80;;
1328;SDS011;658;48.820;9.354;2022-12-07T07:01:10;2.33;;;2.13;;
1328;SDS011;658;48.820;9.354;2022-12-07T07:05:11;1.90;;;1.80;;
1328;SDS011;658;48.820;9.354;2022-12-07T07:09:12;2.20;;;2.00;;
1328;SDS011;658;48.820;9.354;2022-12-07T07:13:12;2.30;;;2.10;;
1328;SDS011;658;48.820;9.354;2022-12-07T07:17:13;4.13;;;1.93;;
1328;SDS011;658;48.820;9.354;2022-12-07T07:21:14;3.00;;;1.80;;
1328;SDS011;658;48.820;9.354;2022-12-07T07:25:15;1.80;;;1.70;;
1328;SDS011;658;48.820;9.354;2022-12-07T07:29:15;1.80;;;1.70;;
1328;SDS011;658;48.820;9.354;2022-12-07T07:33:16;2.00;;;1.90;;
1328;SDS011;658;48.820;9.354;2022-12-07T07:37:17;3.03;;;2.00;;
1328;SDS011;658;48.820;9.354;2022-12-07T07:41:17;2.33;;;1.90;;
1328;SDS011;658;48.820;9.354;2022-12-07T07:45:18;1.80;;;1.70;;
1328;SDS011;658;48.820;9.354;2022-12-07T07:49:19;3.20;;;2.00;;
1328;SDS011;658;48.820;9.354;2022-12-07T07:53:20;1.83;;;1.73;;
1328;SDS011;658;48.820;9.354;2022-12-07T07:57:20;2.80;;;1.80;;
1328;SDS011;658;48.820;9.354;2022-12-07T08:01:21;2.13;;;1.93;;
1328;SDS011;658;48.820;9.354;2022-12-07T08:05:22;2.10;;;1.90;;
1328;SDS011;658;48.820;9.354;2022-12-07T08:09:22;2.07;;;1.90;;
1328;SDS011;658;48.820;9.354;2022-12-07T08:13:23;2.50;;;1.80;;
1328;SDS011;658;48.820;9.354;2022-12-07T08:17:23;1.80;;;1.70;;
1328;SDS011;658;48.820;9.354;2022-12-07T08:21:24;2.17;;;2.00;;
1328;SDS011;658;48.820;9.354;2022-12-07T08:25:24;2.20;;;1.80;;
1328;SDS011;658;48.820;9.354;2022-12-07T08:29:25;2.67;;;2.47;;
1328;SDS011;658;48.820;9.354;2022-12-07T08:33:26;2.13;;;2.00;;
1328;SDS011;658;48.820;9.354;2022-12-07T08:37:27;2.30;;;2.20;;
1328;SDS011;658;48.820;9.354;2022-12-07T08:41:27;2.07;;;1.93;;
1328;SDS011;658;48.820;9.354;2022-12-07T08:45:28;1.87;;;1.77;;
1328;SDS011;658;48.820;9.354;2022-12-07T08:49:39;1.93;;;1.70;;
1328;SDS011;658;48.820;9.354;2022-12-07T08:53:41;2.33;;;2.00;;
1328;SDS011;658;48.820;9.354;2022-12-07T08:57:43;1.87;;;1.77;;
1328;SDS011;658;48.820;9.354;2022-12-07T09:01:44;2.27;;;2.00;;
1328;SDS011;658;48.820;9.354;2022-12-07T09:05:45;1.70;;;1.60;;
1328;SDS011;658;48.820;9.354;2022-12-07T09:09:45;2.60;;;2.00;;
1328;SDS011;658;48.820;9.354;2022-12-07T09:13:46;2.35;;;2.17;;
1328;SDS011;658;48.820;9.354;2022-12-07T09:17:47;3.03;;;2.00;;
1328;SDS011;658;48.820;9.354;2022-12-07T09:21:47;2.97;;;2.30;;
1328;SDS011;658;48.820;9.354;2022-12-07T09:25:48;1.90;;;1.70;;
1328;SDS011;658;48.820;9.354;2022-12-07T09:29:49;1.70;;;1.60;;
1328;SDS011;658;48.820;9.354;2022-12-07T09:33:56;1.80;;;1.70;;
1328;SDS011;658;48.820;9.354;2022-12-07T09:37:58;1.80;;;1.70;;
1328;SDS011;658;48.820;9.354;2022-12-07T09:41:59;2.07;;;1.87;;
1328;SDS011;658;48.820;9.354;2022-12-07T09:46:03;2.07;;;1.97;;
1328;SDS011;658;48.820;9.354;2022-12-07T09:50:06;1.87;;;1.77;;
1328;SDS011;658;48.820;9.354;2022-12-07T09:54:13;1.80;;;1.70;;
1328;SDS011;658;48.820;9.354;2022-12-07T09:58:17;1.80;;;1.70;;
1328;SDS011;658;48.820;9.354;2022-12-07T10:06:32;1.53;;;1.43;;
1328;SDS011;658;48.820;9.354;2022-12-07T10:10:33;1.90;;;1.80;;
1328;SDS011;658;48.820;9.354;2022-12-07T10:14:40;2.03;;;1.83;;
1328;SDS011;658;48.820;9.354;2022-12-07T10:18:54;1.73;;;1.40;;
1328;SDS011;658;48.820;9.354;2022-12-07T10:23:02;1.73;;;1.63;;
1328;SDS011;658;48.820;9.354;2022-12-07T10:27:05;2.33;;;1.73;;
1328;SDS011;658;48.820;9.354;2022-12-07T10:31:17;2.00;;;1.60;;
1328;SDS011;658;48.820;9.354;2022-12-07T10:35:22;1.70;;;1.57;;
1328;SDS011;658;48.820;9.354;2022-12-07T10:39:29;1.50;;;1.37;;
1328;SDS011;658;48.820;9.354;2022-12-07T10:43:46;1.57;;;1.23;;
1328;SDS011;658;48.820;9.354;2022-12-07T10:52:10;1.57;;;1.47;;
1328;SDS011;658;48.820;9.354;2022-12-07T10:56:35;1.30;;;1.20;;
1328;SDS011;658;48.820;9.354;2022-12-07T11:05:03;1.50;;;1.40;;
1328;SDS011;658;48.820;9.354;2022-12-07T11:13:47;1.80;;;1.70;;
1328;SDS011;658;48.820;9.354;2022-12-07T11:17:52;1.20;;;1.10;;
1328;SDS011;658;48.820;9.354;2022-12-07T11:22:01;1.57;;;1.47;;
1328;SDS011;658;48.820;9.354;2022-12-07T11:26:13;1.37;;;1.27;;
1328;SDS011;658;48.820;9.354;2022-12-07T11:30:18;1.37;;;1.27;;
1328;SDS011;658;48.820;9.354;2022-12-07T11:34:57;1.27;;;1.17;;
1328;SDS011;658;48.820;9.354;2022-12-07T11:38:59;1.60;;;1.50;;
1328;SDS011;658;48.820;9.354;2022-12-07T11:47:17;1.30;;;1.20;;
1328;SDS011;658;48.820;9.354;2022-12-07T11:51:38;2.13;;;1.50;;
1328;SDS011;658;48.820;9.354;2022-12-07T11:59:49;1.40;;;1.30;;
1328;SDS011;658;48.820;9.354;2022-12-07T12:03:53;1.17;;;1.17;;
1328;SDS011;658;48.820;9.354;2022-12-07T12:08:17;1.57;;;1.10;;
1328;SDS011;658;48.820;9.354;2022-12-07T12:16:57;2.20;;;1.60;;
1328;SDS011;658;48.820;9.354;2022-12-07T12:21:18;1.53;;;1.43;;
1328;SDS011;658;48.820;9.354;2022-12-07T12:25:27;1.63;;;1.30;;
1328;SDS011;658;48.820;9.354;2022-12-07T12:29:37;1.13;;;1.13;;
1328;SDS011;658;48.820;9.354;2022-12-07T12:33:45;1.37;;;1.30;;
1328;SDS011;658;48.820;9.354;2022-12-07T12:37:48;1.93;;;1.20;;
1328;SDS011;658;48.820;9.354;2022-12-07T12:41:55;1.53;;;1.40;;
1328;SDS011;658;48.820;9.354;2022-12-07T12:46:35;1.60;;;1.50;;
1328;SDS011;658;48.820;9.354;2022-12-07T12:50:30;1.50;;;1.20;;
1328;SDS011;658;48.820;9.354;2022-12-07T12:54:34;1.07;;;1.03;;
1328;SDS011;658;48.820;9.354;2022-12-07T12:58:37;1.37;;;1.27;;
1328;SDS011;658;48.820;9.354;2022-12-07T13:02:48;1.60;;;1.50;;
1328;SDS011;658;48.820;9.354;2022-12-07T13:06:52;3.20;;;1.23;;
1328;SDS011;658;48.820;9.354;2022-12-07T13:10:53;1.63;;;1.50;;
1328;SDS011;658;48.820;9.354;2022-12-07T13:18:55;1.50;;;1.40;;
1328;SDS011;658;48.820;9.354;2022-12-07T13:22:57;2.57;;;1.30;;
1328;SDS011;658;48.820;9.354;2022-12-07T13:26:59;1.20;;;1.20;;
1328;SDS011;658;48.820;9.354;2022-12-07T13:31:03;1.27;;;1.00;;
1328;SDS011;658;48.820;9.354;2022-12-07T13:39:54;2.20;;;1.80;;
1328;SDS011;658;48.820;9.354;2022-12-07T13:44:02;2.10;;;1.17;;
1328;SDS011;658;48.820;9.354;2022-12-07T13:48:10;1.30;;;1.20;;
1328;SDS011;658;48.820;9.354;2022-12-07T13:52:17;1.47;;;1.37;;
1328;SDS011;658;48.820;9.354;2022-12-07T13:56:24;1.37;;;1.27;;
1328;SDS011;658;48.820;9.354;2022-12-07T14:00:31;1.20;;;1.20;;
1328;SDS011;658;48.820;9.354;2022-12-07T14:04:33;1.17;;;1.17;;
1328;SDS011;658;48.820;9.354;2022-12-07T14:08:40;1.33;;;1.23;;
1328;SDS011;658;48.820;9.354;2022-12-07T14:12:44;1.30;;;1.20;;
1328;SDS011;658;48.820;9.354;2022-12-07T14:16:54;1.50;;;1.40;;
1328;SDS011;658;48.820;9.354;2022-12-07T14:21:15;1.40;;;1.30;;
1328;SDS011;658;48.820;9.354;2022-12-07T14:25:23;7.07;;;1.77;;
1328;SDS011;658;48.820;9.354;2022-12-07T14:29:31;1.30;;;1.20;;
1328;SDS011;658;48.820;9.354;2022-12-07T14:33:40;1.50;;;1.40;;
1328;SDS011;658;48.820;9.354;2022-12-07T14:37:44;1.80;;;1.13;;
1328;SDS011;658;48.820;9.354;2022-12-07T14:41:49;3.10;;;1.53;;
1328;SDS011;658;48.820;9.354;2022-12-07T14:45:50;1.43;;;1.33;;
1328;SDS011;658;48.820;9.354;2022-12-07T14:49:50;1.23;;;1.23;;
1328;SDS011;658;48.820;9.354;2022-12-07T14:53:53;1.40;;;1.30;;
1328;SDS011;658;48.820;9.354;2022-12-07T14:57:54;1.60;;;1.40;;
1328;SDS011;658;48.820;9.354;2022-12-07T15:01:55;5.30;;;4.80;;
1328;SDS011;658;48.820;9.354;2022-12-07T15:05:56;5.90;;;5.50;;
1328;SDS011;658;48.820;9.354;2022-12-07T15:09:57;5.27;;;4.77;;
1328;SDS011;658;48.820;9.354;2022-12-07T15:14:00;4.70;;;4.20;;
1328;SDS011;658;48.820;9.354;2022-12-07T15:18:12;4.20;;;3.90;;
1328;SDS011;658;48.820;9.354;2022-12-07T15:22:12;4.07;;;3.77;;
1328;SDS011;658;48.820;9.354;2022-12-07T15:26:13;3.43;;;3.23;;
1328;SDS011;658;48.820;9.354;2022-12-07T15:30:14;3.43;;;3.03;;
1328;SDS011;658;48.820;9.354;2022-12-07T15:34:15;3.57;;;3.27;;
1328;SDS011;658;48.820;9.354;2022-12-07T15:38:15;3.73;;;3.43;;
1328;SDS011;658;48.820;9.354;2022-12-07T15:42:16;3.00;;;2.80;;
1328;SDS011;658;48.820;9.354;2022-12-07T15:46:16;5.83;;;3.40;;
1328;SDS011;658;48.820;9.354;2022-12-07T15:50:17;3.03;;;2.83;;
1328;SDS011;658;48.820;9.354;2022-12-07T15:54:22;3.70;;;2.73;;
1328;SDS011;658;48.820;9.354;2022-12-07T15:58:25;3.03;;;2.83;;
1328;SDS011;658;48.820;9.354;2022-12-07T16:02:26;3.37;;;3.07;;
1328;SDS011;658;48.820;9.354;2022-12-07T16:06:26;2.70;;;2.50;;
1328;SDS011;658;48.820;9.354;2022-12-07T16:10:27;2.97;;;2.77;;
1328;SDS011;658;48.820;9.354;2022-12-07T16:14:28;2.50;;;2.30;;
1328;SDS011;658;48.820;9.354;2022-12-07T16:18:28;2.90;;;2.70;;
1328;SDS011;658;48.820;9.354;2022-12-07T16:22:29;3.00;;;2.80;;
1328;SDS011;658;48.820;9.354;2022-12-07T16:26:30;2.80;;;2.60;;
1328;SDS011;658;48.820;9.354;2022-12-07T16:30:31;3.00;;;2.70;;
1328;SDS011;658;48.820;9.354;2022-12-07T16:34:32;2.60;;;2.40;;
1328;SDS011;658;48.820;9.354;2022-12-07T16:38:33;2.33;;;2.13;;
1328;SDS011;658;48.820;9.354;2022-12-07T16:42:34;3.50;;;3.20;;
1328;SDS011;658;48.820;9.354;2022-12-07T16:46:38;2.90;;;2.70;;
1328;SDS011;658;48.820;9.354;2022-12-07T16:50:39;2.90;;;2.70;;
1328;SDS011;658;48.820;9.354;2022-12-07T16:54:43;3.20;;;3.00;;
1328;SDS011;658;48.820;9.354;2022-12-07T16:58:43;3.10;;;2.47;;
1328;SDS011;658;48.820;9.354;2022-12-07T17:02:44;2.87;;;2.67;;
1328;SDS011;658;48.820;9.354;2022-12-07T17:06:47;2.37;;;2.17;;
1328;SDS011;658;48.820;9.354;2022-12-07T17:10:51;2.50;;;2.30;;
1328;SDS011;658;48.820;9.354;2022-12-07T17:14:51;2.33;;;2.13;;
1328;SDS011;658;48.820;9.354;2022-12-07T17:19:11;2.23;;;2.03;;
1328;SDS011;658;48.820;9.354;2022-12-07T17:23:14;2.97;;;2.67;;
1328;SDS011;658;48.820;9.354;2022-12-07T17:27:14;2.53;;;2.33;;
1328;SDS011;658;48.820;9.354;2022-12-07T17:31:16;2.57;;;2.37;;
1328;SDS011;658;48.820;9.354;2022-12-07T17:35:18;2.40;;;2.30;;
1328;SDS011;658;48.820;9.354;2022-12-07T17:39:18;2.20;;;2.10;;
1328;SDS011;658;48.820;9.354;2022-12-07T17:43:19;2.40;;;2.20;;
1328;SDS011;658;48.820;9.354;2022-12-07T17:47:20;2.77;;;2.57;;
1328;SDS011;658;48.820;9.354;2022-12-07T17:51:21;4.33;;;2.60;;
1328;SDS011;658;48.820;9.354;2022-12-07T17:55:41;2.73;;;2.50;;
1328;SDS011;658;48.820;9.354;2022-12-07T17:59:44;2.53;;;2.33;;
1328;SDS011;658;48.820;9.354;2022-12-07T18:03:45;2.97;;;2.77;;
1328;SDS011;658;48.820;9.354;2022-12-07T18:07:46;2.53;;;2.37;;
1328;SDS011;658;48.820;9.354;2022-12-07T18:11:46;3.07;;;2.80;;
1328;SDS011;658;48.820;9.354;2022-12-07T18:15:54;2.17;;;1.97;;
1328;SDS011;658;48.820;9.354;2022-12-07T18:19:55;2.50;;;2.30;;
1328;SDS011;658;48.820;9.354;2022-12-07T18:23:57;3.13;;;2.33;;
1328;SDS011;658;48.820;9.354;2022-12-07T18:28:02;2.70;;;2.47;;
1328;SDS011;658;48.820;9.354;2022-12-07T18:32:03;2.80;;;2.60;;
1328;SDS011;658;48.820;9.354;2022-12-07T18:36:05;2.73;;;2.53;;
1328;SDS011;658;48.820;9.354;2022-12-07T18:40:06;4.37;;;2.40;;
1328;SDS011;658;48.820;9.354;2022-12-07T18:44:07;2.47;;;2.20;;
1328;SDS011;658;48.820;9.354;2022-12-07T18:48:08;2.73;;;2.47;;
1328;SDS011;658;48.820;9.354;2022-12-07T18:52:09;2.63;;;2.43;;
1328;SDS011;658;48.820;9.354;2022-12-07T18:56:14;3.03;;;2.70;;
1328;SDS011;658;48.820;9.354;2022-12-07T19:00:17;3.13;;;2.93;;
1328;SDS011;658;48.820;9.354;2022-12-07T19:04:18;3.20;;;2.63;;
1328;SDS011;658;48.820;9.354;2022-12-07T19:08:19;2.43;;;2.23;;
1328;SDS011;658;48.820;9.354;2022-12-07T19:12:20;2.70;;;2.50;;
1328;SDS011;658;48.820;9.354;2022-12-07T19:16:20;2.70;;;2.50;;
1328;SDS011;658;48.820;9.354;2022-12-07T19:20:21;2.50;;;2.30;;
1328;SDS011;658;48.820;9.354;2022-12-07T19:24:22;2.87;;;2.67;;
1328;SDS011;658;48.820;9.354;2022-12-07T19:28:23;2.63;;;2.30;;
1328;SDS011;658;48.820;9.354;2022-12-07T19:32:24;3.07;;;2.77;;
1328;SDS011;658;48.820;9.354;2022-12-07T19:36:25;2.90;;;2.67;;
1328;SDS011;658;48.820;9.354;2022-12-07T19:40:25;3.03;;;2.80;;
1328;SDS011;658;48.820;9.354;2022-12-07T19:44:29;2.87;;;2.67;;
1328;SDS011;658;48.820;9.354;2022-12-07T19:48:32;2.73;;;2.53;;
1328;SDS011;658;48.820;9.354;2022-12-07T19:52:33;2.60;;;2.40;;
1328;SDS011;658;48.820;9.354;2022-12-07T19:56:34;2.77;;;2.57;;
1328;SDS011;658;48.820;9.354;2022-12-07T20:00:34;2.90;;;2.70;;
1328;SDS011;658;48.820;9.354;2022-12-07T20:04:37;2.57;;;2.37;;
1328;SDS011;658;48.820;9.354;2022-12-07T20:08:41;2.53;;;2.33;;
1328;SDS011;658;48.820;9.354;2022-12-07T20:12:43;2.20;;;2.00;;
1328;SDS011;658;48.820;9.354;2022-12-07T20:17:02;2.70;;;2.50;;
1328;SDS011;658;48.820;9.354;2022-12-07T20:21:03;2.40;;;2.30;;
1328;SDS011;658;48.820;9.354;2022-12-07T20:25:04;2.63;;;2.43;;
1328;SDS011;658;48.820;9.354;2022-12-07T20:29:06;2.43;;;2.23;;
1328;SDS011;658;48.820;9.354;2022-12-07T20:33:07;3.03;;;2.83;;
1328;SDS011;658;48.820;9.354;2022-12-07T20:37:08;3.00;;;2.80;;
1328;SDS011;658;48.820;9.354;2022-12-07T20:41:09;2.63;;;2.43;;
1328;SDS011;658;48.820;9.354;2022-12-07T20:45:32;2.63;;;2.43;;
1328;SDS011;658;48.820;9.354;2022-12-07T20:49:32;2.77;;;2.50;;
1328;SDS011;658;48.820;9.354;2022-12-07T20:53:33;2.30;;;2.10;;
1328;SDS011;658;48.820;9.354;2022-12-07T20:57:34;2.60;;;2.40;;
1328;SDS011;658;48.820;9.354;2022-12-07T21:01:38;2.50;;;2.30;;
1328;SDS011;658;48.820;9.354;2022-12-07T21:05:42;2.80;;;2.60;;
1328;SDS011;658;48.820;9.354;2022-12-07T21:09:44;2.60;;;2.40;;
1328;SDS011;658;48.820;9.354;2022-12-07T21:13:45;2.30;;;2.20;;
1328;SDS011;658;48.820;9.354;2022-12-07T21:17:46;3.10;;;2.77;;
1328;SDS011;658;48.820;9.354;2022-12-07T21:21:46;2.80;;;2.50;;
1328;SDS011;658;48.820;9.354;2022-12-07T21:25:47;4.53;;;2.77;;
1328;SDS011;658;48.820;9.354;2022-12-07T21:29:48;3.37;;;3.13;;
1328;SDS011;658;48.820;9.354;2022-12-07T21:33:48;3.17;;;2.90;;
1328;SDS011;658;48.820;9.354;2022-12-07T21:37:49;3.00;;;2.70;;
1328;SDS011;658;48.820;9.354;2022-12-07T21:41:52;2.60;;;2.40;;
1328;SDS011;658;48.820;9.354;2022-12-07T21:45:53;2.93;;;2.73;;
1328;SDS011;658;48.820;9.354;2022-12-07T21:49:54;3.00;;;2.70;;
1328;SDS011;658;48.820;9.354;2022-12-07T21:53:55;2.90;;;2.70;;
1328;SDS011;658;48.820;9.354;2022-12-07T21:57:57;2.20;;;2.10;;
1328;SDS011;658;48.820;9.354;2022-12-07T22:01:58;2.73;;;2.53;;
1328;SDS011;658;48.820;9.354;2022-12-07T22:05:59;3.00;;;2.80;;
1328;SDS011;658;48.820;9.354;2022-12-07T22:10:00;2.33;;;2.13;;
1328;SDS011;658;48.820;9.354;2022-12-07T22:14:01;3.10;;;2.80;;
1328;SDS011;658;48.820;9.354;2022-12-07T22:18:22;3.10;;;2.90;;
1328;SDS011;658;48.820;9.354;2022-12-07T22:22:22;2.50;;;2.40;;
1328;SDS011;658;48.820;9.354;2022-12-07T22:26:23;2.83;;;2.50;;
1328;SDS011;658;48.820;9.354;2022-12-07T22:30:24;2.83;;;2.63;;
1328;SDS011;658;48.820;9.354;2022-12-07T22:34:24;2.60;;;2.40;;
1328;SDS011;658;48.820;9.354;2022-12-07T22:38:25;2.70;;;2.50;;
1328;SDS011;658;48.820;9.354;2022-12-07T22:42:26;2.47;;;2.30;;
1328;SDS011;658;48.820;9.354;2022-12-07T22:46:27;2.50;;;2.30;;
1328;SDS011;658;48.820;9.354;2022-12-07T22:50:30;2.90;;;2.70;;
1328;SDS011;658;48.820;9.354;2022-12-07T22:54:31;2.80;;;2.40;;
1328;SDS011;658;48.820;9.354;2022-12-07T22:58:32;2.63;;;2.53;;
1328;SDS011;658;48.820;9.354;2022-12-07T23:02:35;2.50;;;2.30;;
1328;SDS011;658;48.820;9.354;2022-12-07T23:06:36;2.50;;;2.30;;
1328;SDS011;658;48.820;9.354;2022-12-07T23:10:41;2.30;;;2.10;;
1328;SDS011;658;48.820;9.354;2022-12-07T23:14:42;2.50;;;2.30;;
1328;SDS011;658;48.820;9.354;2022-12-07T23:18:43;2.73;;;2.53;;
1328;SDS011;658;48.820;9.354;2022-12-07T23:22:44;3.10;;;2.90;;
1328;SDS011;658;48.820;9.354;2022-12-07T23:26:44;3.67;;;2.70;;
1328;SDS011;658;48.820;9.354;2022-12-07T23:30:46;3.07;;;2.83;;
1328;SDS011;658;48.820;9.354;2022-12-07T23:34:46;2.43;;;2.33;;
1328;SDS011;658;48.820;9.354;2022-12-07T23:38:53;2.37;;;2.23;;
1328;SDS011;658;48.820;9.354;2022-12-07T23:42:56;2.67;;;2.47;;
1328;SDS011;658;48.820;9.354;2022-12-07T23:46:57;2.27;;;2.17;;
1328;SDS011;658;48.820;9.354;2022-12-07T23:50:57;2.80;;;2.60;;
1328;SDS011;658;48.820;9.354;2022-12-07T23:54:58;2.80;;;2.60;;
1328;SDS011;658;48.820;9.354;2022-12-07T23:58:59;2.87;;;2.67;;
